Time;durP1;ratioP1;P1;durP2;ratioP2;P2;SDS_P1;SDS_P2;PMS_P1;PMS_P2;Temp;Humidity;BMP_temperature;BMP_pressure;BME280_temperature;BME280_humidity;BME280_pressure;Samples;Min_cycle;Max_cycle;Signal;HPM_P1;HPM_P2
2022/08/31 00:04:47;;;;;;;2.50;1.23;;;21.50;57.60;;;;;;6098276;23;20143;-86
2022/08/31 00:07:13;;;;;;;2.40;1.10;;;21.50;57.60;;;;;;6097576;23;20161;-85
2022/08/31 00:09:41;;;;;;;1.25;1.15;;;21.50;57.60;;;;;;6073952;23;20593;-85
2022/08/31 00:12:10;;;;;;;1.20;1.10;;;21.50;57.60;;;;;;6024922;23;20195;-85
2022/08/31 00:14:35;;;;;;;1.25;1.13;;;21.50;57.60;;;;;;6048747;23;20247;-86
2022/08/31 00:17:01;;;;;;;1.30;1.20;;;21.50;57.60;;;;;;6073645;23;20553;-86
2022/08/31 00:19:27;;;;;;;0.95;0.95;;;21.50;57.60;;;;;;6097286;23;20144;-86
2022/08/31 00:21:53;;;;;;;1.85;1.20;;;21.50;57.60;;;;;;6049840;23;20193;-86
2022/08/31 00:24:19;;;;;;;1.58;1.48;;;21.50;57.60;;;;;;6073353;23;20145;-86
2022/08/31 00:26:44;;;;;;;2.22;1.40;;;21.50;57.60;;;;;;6074042;23;20145;-86
2022/08/31 00:29:12;;;;;;;1.38;1.27;;;21.40;57.50;;;;;;6073515;23;20216;-86
2022/08/31 00:31:38;;;;;;;1.40;1.30;;;21.50;57.60;;;;;;6097543;23;20145;-86
2022/08/31 00:34:06;;;;;;;1.63;1.35;;;21.50;57.60;;;;;;6073463;23;20202;-86
2022/08/31 00:36:33;;;;;;;1.33;1.20;;;21.50;57.60;;;;;;6097429;23;20632;-86
2022/08/31 00:39:00;;;;;;;2.20;1.38;;;21.50;57.70;;;;;;6048650;23;20153;-86
2022/08/31 00:41:30;;;;;;;1.50;1.30;;;21.40;57.60;;;;;;6048481;23;20148;-85
2022/08/31 00:44:00;;;;;;;2.15;1.30;;;21.50;57.60;;;;;;6072224;23;20244;-86
2022/08/31 00:46:32;;;;;;;1.55;1.45;;;21.50;57.60;;;;;;6048878;23;20156;-86
2022/08/31 00:49:30;;;;;;;1.40;1.30;;;21.30;57.60;;;;;;6073385;23;20133;-85
2022/08/31 00:52:03;;;;;;;1.85;1.45;;;21.40;57.70;;;;;;6096769;23;20303;-86
2022/08/31 00:54:33;;;;;;;1.25;1.15;;;21.50;57.70;;;;;;6048672;23;20157;-86
2022/08/31 00:57:00;;;;;;;1.33;1.23;;;21.40;57.70;;;;;;6048382;23;20458;-86
2022/08/31 00:59:28;;;;;;;1.30;1.20;;;21.50;57.70;;;;;;6048288;23;20208;-86
2022/08/31 01:01:55;;;;;;;1.33;1.20;;;21.40;57.60;;;;;;6048346;23;20159;-85
2022/08/31 01:04:22;;;;;;;2.83;1.42;;;21.40;57.70;;;;;;6048302;23;20536;-85
2022/08/31 01:06:52;;;;;;;1.77;1.33;;;21.40;57.70;;;;;;6047888;23;20176;-86
2022/08/31 01:09:22;;;;;;;1.67;1.10;;;21.40;57.80;;;;;;6049448;23;20163;-86
2022/08/31 01:11:52;;;;;;;1.52;1.23;;;21.40;57.70;;;;;;6050230;23;20148;-86
2022/08/31 01:14:23;;;;;;;1.42;1.33;;;21.40;57.80;;;;;;6041628;23;20154;-85
2022/08/31 01:16:51;;;;;;;2.17;1.30;;;21.40;57.70;;;;;;5996077;23;20589;-86
2022/08/31 01:19:38;;;;;;;1.40;1.30;;;21.40;57.70;;;;;;6043276;23;20153;-85
2022/08/31 01:22:18;;;;;;;1.35;1.20;;;21.40;57.80;;;;;;6043344;23;20162;-86
2022/08/31 01:24:45;;;;;;;1.50;1.40;;;21.40;57.70;;;;;;6043838;23;20181;-86
2022/08/31 01:27:11;;;;;;;1.40;1.30;;;21.40;57.80;;;;;;6043473;23;20211;-86
2022/08/31 01:29:36;;;;;;;1.30;1.20;;;21.40;57.80;;;;;;6043356;23;20533;-86
2022/08/31 01:32:03;;;;;;;1.10;1.10;;;21.50;57.90;;;;;;6019395;23;20145;-86
2022/08/31 01:34:28;;;;;;;1.15;1.00;;;21.40;57.80;;;;;;6043140;23;20160;-85
2022/08/31 01:36:57;;;;;;;1.75;1.40;;;21.50;57.90;;;;;;6019240;23;20150;-86
2022/08/31 01:39:24;;;;;;;1.30;1.20;;;21.40;57.80;;;;;;6019841;23;20160;-86
2022/08/31 01:41:52;;;;;;;2.67;1.30;;;21.40;57.80;;;;;;6018916;23;20158;-85
2022/08/31 01:44:26;;;;;;;1.30;1.20;;;21.40;57.80;;;;;;6046290;23;20296;-86
2022/08/31 01:46:53;;;;;;;1.30;1.20;;;21.40;57.90;;;;;;6050713;23;20153;-85
2022/08/31 01:49:20;;;;;;;1.35;1.20;;;21.40;57.90;;;;;;6047877;23;20244;-86
2022/08/31 01:51:46;;;;;;;1.38;1.27;;;21.40;57.90;;;;;;6096363;23;20133;-86
2022/08/31 01:54:11;;;;;;;1.77;1.13;;;21.40;57.90;;;;;;6072626;23;20180;-85
2022/08/31 01:56:40;;;;;;;1.15;1.10;;;21.40;57.90;;;;;;6096736;23;20144;-86
2022/08/31 01:59:07;;;;;;;1.35;1.25;;;21.40;57.90;;;;;;6048870;23;20563;-86
2022/08/31 02:01:37;;;;;;;1.20;1.10;;;21.40;58.00;;;;;;6072579;23;20133;-86
2022/08/31 02:04:13;;;;;;;2.20;1.25;;;21.30;57.90;;;;;;6048626;23;20140;-85
2022/08/31 02:06:41;;;;;;;1.45;1.35;;;21.40;58.00;;;;;;6072540;23;20615;-85
2022/08/31 02:09:06;;;;;;;1.20;1.10;;;21.30;58.00;;;;;;6072514;23;20137;-85
2022/08/31 02:11:32;;;;;;;1.40;1.30;;;21.30;58.00;;;;;;6072382;23;20462;-86
2022/08/31 02:13:59;;;;;;;1.17;1.10;;;21.40;58.00;;;;;;6048990;23;20607;-86
2022/08/31 02:16:24;;;;;;;1.92;1.10;;;21.30;58.00;;;;;;6072318;23;20192;-85
2022/08/31 02:18:52;;;;;;;1.35;1.20;;;21.40;58.00;;;;;;6072296;23;20164;-86
2022/08/31 02:21:18;;;;;;;0.93;0.93;;;21.40;58.00;;;;;;6096267;23;20137;-86
2022/08/31 02:23:43;;;;;;;1.23;1.15;;;21.30;58.00;;;;;;6072548;23;20171;-86
2022/08/31 02:26:12;;;;;;;1.40;1.30;;;21.40;58.00;;;;;;6072523;23;20141;-86
2022/08/31 02:28:39;;;;;;;1.38;1.20;;;21.30;58.00;;;;;;6024177;23;20482;-86
2022/08/31 02:31:07;;;;;;;1.20;1.10;;;21.40;58.00;;;;;;6047427;23;20235;-86
2022/08/31 02:33:35;;;;;;;1.38;1.27;;;21.40;58.00;;;;;;6047457;23;20650;-85
2022/08/31 02:36:01;;;;;;;1.38;1.15;;;21.30;58.00;;;;;;6047295;23;20160;-85
2022/08/31 02:38:27;;;;;;;1.33;1.23;;;21.30;58.00;;;;;;6096406;23;20137;-85
2022/08/31 02:40:54;;;;;;;1.40;1.30;;;21.30;58.00;;;;;;6023837;23;20478;-85
2022/08/31 02:43:20;;;;;;;1.00;1.00;;;21.30;58.00;;;;;;6070860;23;20164;-86
2022/08/31 02:45:47;;;;;;;1.30;1.20;;;21.30;58.00;;;;;;6048058;23;20508;-87
2022/08/31 02:48:13;;;;;;;2.22;1.10;;;21.30;58.00;;;;;;6072004;23;20145;-86
2022/08/31 02:50:45;;;;;;;2.55;1.10;;;21.40;58.10;;;;;;6071808;23;20477;-85
2022/08/31 02:53:12;;;;;;;1.25;1.15;;;21.30;58.00;;;;;;6036983;23;20653;-86
2022/08/31 02:55:37;;;;;;;1.15;1.05;;;21.30;58.00;;;;;;6014097;23;20205;-86
2022/08/31 02:58:04;;;;;;;1.27;1.17;;;21.40;58.10;;;;;;6013510;23;20209;-86
2022/08/31 03:00:30;;;;;;;1.40;1.30;;;21.30;58.70;;;;;;6013726;23;20192;-85
2022/08/31 03:02:56;;;;;;;1.40;1.30;;;21.30;58.10;;;;;;6037424;23;20182;-86
2022/08/31 03:05:22;;;;;;;2.92;1.40;;;21.30;58.10;;;;;;6037294;23;20447;-85
2022/08/31 03:07:49;;;;;;;1.65;1.35;;;21.30;58.10;;;;;;6013896;23;20610;-86
2022/08/31 03:10:15;;;;;;;1.00;1.00;;;21.30;58.10;;;;;;6013472;23;20150;-85
2022/08/31 03:12:41;;;;;;;1.30;1.05;;;21.30;58.10;;;;;;6013548;23;20740;-86
2022/08/31 03:15:10;;;;;;;1.35;1.10;;;21.30;58.10;;;;;;6013626;23;20190;-85
2022/08/31 03:17:35;;;;;;;1.08;1.05;;;21.40;58.20;;;;;;5990296;23;20154;-86
2022/08/31 03:20:05;;;;;;;1.10;1.10;;;21.30;58.10;;;;;;5990772;23;20200;-86
2022/08/31 03:22:30;;;;;;;1.17;1.08;;;21.30;58.10;;;;;;6014063;23;20633;-86
2022/08/31 03:24:56;;;;;;;1.13;1.10;;;21.30;58.10;;;;;;6082617;23;20247;-86
2022/08/31 03:27:29;;;;;;;1.38;1.27;;;21.30;58.10;;;;;;6071641;23;20133;-86
2022/08/31 03:29:54;;;;;;;1.60;1.27;;;21.30;58.20;;;;;;6075894;23;20190;-85
2022/08/31 03:32:20;;;;;;;1.30;1.20;;;21.30;58.20;;;;;;6099431;23;20175;-85
2022/08/31 03:34:46;;;;;;;1.20;1.10;;;21.30;58.20;;;;;;6099507;23;20151;-86
2022/08/31 03:37:13;;;;;;;2.00;1.20;;;21.30;58.20;;;;;;6099160;23;20140;-86
2022/08/31 03:39:39;;;;;;;1.20;1.10;;;21.20;58.20;;;;;;6051345;23;20167;-86
2022/08/31 03:42:06;;;;;;;1.42;1.30;;;21.20;58.10;;;;;;6099372;23;20160;-85
2022/08/31 03:44:32;;;;;;;1.52;1.33;;;21.30;58.90;;;;;;6099338;23;20608;-85
2022/08/31 03:46:58;;;;;;;0.98;0.98;;;21.30;58.90;;;;;;6099529;23;20636;-85
2022/08/31 03:49:25;;;;;;;1.10;1.00;;;21.30;58.30;;;;;;6075498;23;20271;-85
2022/08/31 03:51:57;;;;;;;1.35;1.10;;;21.30;58.20;;;;;;6100074;23;20156;-85
2022/08/31 03:54:23;;;;;;;1.88;1.33;;;21.30;58.20;;;;;;6123852;23;20572;-85
2022/08/31 03:56:48;;;;;;;1.30;1.20;;;21.30;58.20;;;;;;6099532;23;20132;-85
2022/08/31 03:59:19;;;;;;;1.13;1.02;;;21.30;58.20;;;;;;6098855;23;20187;-85
2022/08/31 04:01:45;;;;;;;1.35;1.25;;;21.30;58.30;;;;;;6095522;23;20153;-85
2022/08/31 04:04:13;;;;;;;2.13;1.10;;;21.30;58.30;;;;;;6048019;23;20159;-85
2022/08/31 04:06:40;;;;;;;1.42;1.20;;;21.30;58.30;;;;;;6071507;23;20137;-85
2022/08/31 04:09:06;;;;;;;1.30;1.20;;;21.30;58.30;;;;;;6095551;23;20137;-86
2022/08/31 04:11:38;;;;;;;1.08;1.05;;;21.20;58.20;;;;;;6013299;23;20162;-86
2022/08/31 04:14:04;;;;;;;1.38;1.20;;;21.30;58.30;;;;;;6036847;23;20189;-86
2022/08/31 04:16:31;;;;;;;1.70;1.00;;;21.30;58.30;;;;;;6013558;23;20159;-86
2022/08/31 04:18:59;;;;;;;1.17;1.08;;;21.20;58.30;;;;;;6037024;23;20146;-86
2022/08/31 04:21:26;;;;;;;1.00;1.00;;;21.30;58.30;;;;;;6037055;23;20459;-86
2022/08/31 04:23:53;;;;;;;1.20;1.08;;;21.20;58.30;;;;;;6036886;23;20205;-86
2022/08/31 04:26:21;;;;;;;1.25;1.10;;;21.30;58.30;;;;;;6036816;23;20150;-86
2022/08/31 04:28:47;;;;;;;1.40;1.30;;;21.30;58.30;;;;;;6013636;23;20143;-86
2022/08/31 04:31:13;;;;;;;3.28;1.30;;;21.30;58.30;;;;;;6013101;23;20161;-85
2022/08/31 04:33:39;;;;;;;1.00;1.00;;;21.30;58.30;;;;;;6037147;23;20178;-86
2022/08/31 04:36:08;;;;;;;1.33;1.23;;;21.30;58.30;;;;;;6036926;23;20226;-86
2022/08/31 04:38:34;;;;;;;1.20;1.10;;;21.30;58.20;;;;;;6036308;23;20570;-86
2022/08/31 04:41:14;;;;;;;1.20;1.10;;;21.30;58.10;;;;;;6036892;23;20586;-86
2022/08/31 04:43:43;;;;;;;1.73;1.05;;;21.30;58.00;;;;;;5973398;23;20236;-86
2022/08/31 04:46:09;;;;;;;1.27;1.17;;;21.30;58.20;;;;;;5995008;23;20597;-86
2022/08/31 04:48:35;;;;;;;0.93;0.93;;;21.30;58.20;;;;;;6019366;23;20161;-86
2022/08/31 04:51:07;;;;;;;1.25;1.15;;;21.30;58.00;;;;;;5996249;23;20142;-86
2022/08/31 04:53:33;;;;;;;1.00;0.93;;;21.30;58.00;;;;;;6020124;23;20214;-86
2022/08/31 04:56:06;;;;;;;1.20;1.10;;;21.30;57.80;;;;;;6019908;23;20641;-86
2022/08/31 04:58:32;;;;;;;1.30;1.20;;;21.30;57.80;;;;;;5996898;23;20585;-86
2022/08/31 05:01:01;;;;;;;1.02;0.88;;;21.30;58.00;;;;;;5996025;23;20597;-86
2022/08/31 05:03:31;;;;;;;1.90;1.00;;;21.30;58.00;;;;;;5973725;23;20161;-86
2022/08/31 05:05:56;;;;;;;1.20;1.10;;;21.30;58.30;;;;;;5996336;23;20590;-85
2022/08/31 05:08:22;;;;;;;1.50;0.80;;;21.30;58.30;;;;;;5996116;23;20176;-86
2022/08/31 05:11:07;;;;;;;1.48;0.98;;;21.20;57.50;;;;;;5995919;23;20160;-86
2022/08/31 05:13:33;;;;;;;1.25;0.98;;;21.30;57.70;;;;;;5989918;23;20190;-86
2022/08/31 05:15:58;;;;;;;0.80;0.80;;;21.20;57.60;;;;;;6019579;23;20145;-85
2022/08/31 05:18:25;;;;;;;0.70;0.70;;;21.20;57.30;;;;;;6067138;23;20157;-86
2022/08/31 05:20:52;;;;;;;1.08;0.82;;;21.20;57.10;;;;;;6019671;23;20162;-86
2022/08/31 05:23:20;;;;;;;0.90;0.90;;;21.20;57.00;;;;;;5995324;23;20162;-86
2022/08/31 05:25:46;;;;;;;0.75;0.70;;;21.30;57.00;;;;;;6019067;23;20232;-86
2022/08/31 05:28:25;;;;;;;0.70;0.70;;;21.20;57.10;;;;;;5996065;23;20184;-87
2022/08/31 05:31:02;;;;;;;0.80;0.80;;;21.20;57.10;;;;;;6018837;23;20365;-86
2022/08/31 05:33:29;;;;;;;0.82;0.82;;;21.20;57.10;;;;;;5995964;23;20221;-86
2022/08/31 05:36:03;;;;;;;0.80;0.80;;;21.20;57.20;;;;;;5995594;23;20153;-86
2022/08/31 05:38:29;;;;;;;0.73;0.73;;;21.20;57.10;;;;;;5963829;23;20564;-86
2022/08/31 05:40:55;;;;;;;1.15;0.93;;;21.20;57.80;;;;;;6009905;23;20233;-86
2022/08/31 05:43:24;;;;;;;1.00;1.00;;;21.20;57.20;;;;;;5994343;23;20237;-86
2022/08/31 05:45:53;;;;;;;0.85;0.80;;;21.20;57.20;;;;;;6013807;23;20165;-86
2022/08/31 05:48:19;;;;;;;1.92;1.05;;;21.20;57.30;;;;;;5991693;23;20154;-86
2022/08/31 05:50:54;;;;;;;0.70;0.70;;;21.20;57.00;;;;;;6014363;23;20150;-86
2022/08/31 05:53:20;;;;;;;2.35;0.88;;;21.20;56.90;;;;;;6014336;23;20199;-85
2022/08/31 05:55:46;;;;;;;1.20;1.10;;;21.20;56.90;;;;;;6014056;23;20236;-85
2022/08/31 05:58:21;;;;;;;1.55;1.45;;;21.20;57.00;;;;;;5989948;23;20240;-86
2022/08/31 06:00:47;;;;;;;1.83;1.42;;;21.20;57.00;;;;;;5990162;23;20645;-86
2022/08/31 06:03:13;;;;;;;1.50;1.40;;;21.10;57.10;;;;;;5991041;23;20158;-85
2022/08/31 06:05:38;;;;;;;1.52;1.30;;;21.10;57.10;;;;;;6013620;23;20193;-85
2022/08/31 06:08:11;;;;;;;1.40;1.10;;;21.10;57.20;;;;;;5990828;23;20201;-86
2022/08/31 06:10:37;;;;;;;2.00;1.20;;;21.10;57.30;;;;;;6040956;23;20232;-86
2022/08/31 06:13:05;;;;;;;1.20;1.10;;;21.10;57.30;;;;;;6042686;23;20182;-86
2022/08/31 06:15:34;;;;;;;2.22;1.27;;;21.10;57.40;;;;;;5996949;23;20205;-84
2022/08/31 06:18:12;;;;;;;2.83;1.10;;;21.10;57.50;;;;;;6073942;23;20228;-85
2022/08/31 06:20:43;;;;;;;2.67;1.20;;;21.10;57.60;;;;;;6095719;23;20513;-85
2022/08/31 06:23:15;;;;;;;1.27;1.15;;;21.10;57.80;;;;;;6045911;23;20160;-86
2022/08/31 06:25:41;;;;;;;1.70;1.40;;;21.10;57.90;;;;;;6040158;23;20455;-86
2022/08/31 06:28:07;;;;;;;2.53;1.20;;;21.10;57.80;;;;;;6042083;23;20224;-86
2022/08/31 06:30:35;;;;;;;2.35;1.20;;;21.10;57.90;;;;;;6070778;23;20188;-86
2022/08/31 06:33:06;;;;;;;1.75;1.25;;;21.10;57.80;;;;;;6094441;23;20628;-86
2022/08/31 06:35:55;;;;;;;2.55;1.20;;;21.10;57.80;;;;;;6095347;23;20160;-85
2022/08/31 06:38:21;;;;;;;1.40;1.10;;;21.10;57.80;;;;;;6015376;23;20186;-85
2022/08/31 06:40:47;;;;;;;1.80;1.20;;;21.10;57.80;;;;;;6016985;23;20150;-87
2022/08/31 06:43:14;;;;;;;1.30;1.20;;;21.10;57.80;;;;;;6015792;23;20704;-85
2022/08/31 06:46:18;;;;;;;1.13;1.02;;;21.10;57.90;;;;;;6014052;23;20173;-85
2022/08/31 06:53:01;;;;;;;2.20;1.10;;;21.10;57.90;;;;;;5847419;24;20195;-85
2022/08/31 06:58:47;;;;;;;2.28;1.20;;;21.00;58.20;;;;;;5824433;24;20243;-88
2022/08/31 07:01:41;;;;;;;1.40;1.27;;;21.10;58.10;;;;;;5802698;24;20165;-86
2022/08/31 07:07:57;;;;;;;1.40;1.20;;;21.10;58.00;;;;;;5712059;25;20224;-84
2022/08/31 07:10:36;;;;;;;2.67;1.40;;;21.10;58.00;;;;;;5761871;24;20165;-85
2022/08/31 07:13:04;;;;;;;1.85;1.60;;;21.10;58.20;;;;;;5729209;24;20296;-85
2022/08/31 07:15:35;;;;;;;1.60;1.50;;;21.10;58.10;;;;;;5764597;24;20161;-84
2022/08/31 07:21:10;;;;;;;1.65;1.30;;;21.10;58.10;;;;;;5728779;24;20176;-83
2022/08/31 07:23:42;;;;;;;1.80;1.20;;;21.10;58.00;;;;;;5741684;25;20169;-85
2022/08/31 07:26:11;;;;;;;5.82;1.73;;;21.20;57.90;;;;;;5731289;25;20536;-86
2022/08/31 07:28:55;;;;;;;5.20;1.60;;;21.20;57.80;;;;;;5663245;25;20248;-85
2022/08/31 07:31:45;;;;;;;2.72;1.52;;;21.20;58.00;;;;;;5741326;25;20258;-85
2022/08/31 07:34:25;;;;;;;3.65;1.30;;;21.30;57.90;;;;;;5744220;24;20197;-85
2022/08/31 07:42:42;;;;;;;1.73;1.30;;;21.30;57.60;;;;;;5841735;24;20150;-84
2022/08/31 07:45:21;;;;;;;2.88;1.33;;;21.30;57.50;;;;;;5887302;24;20160;-85
2022/08/31 07:48:19;;;;;;;2.25;1.10;;;21.30;57.50;;;;;;5898692;24;20184;-87
2022/08/31 07:50:46;;;;;;;3.30;1.52;;;21.40;57.20;;;;;;5844216;24;20164;-87
2022/08/31 07:53:15;;;;;;;2.28;1.17;;;21.50;57.10;;;;;;5795644;24;20195;-84
2022/08/31 07:56:00;;;;;;;3.55;1.00;;;21.40;57.00;;;;;;5796324;24;20236;-86
2022/08/31 07:58:29;;;;;;;4.30;1.45;;;21.40;57.10;;;;;;5772961;24;20199;-86
2022/08/31 08:01:14;;;;;;;3.78;1.20;;;21.30;57.30;;;;;;5769640;24;20617;-85
2022/08/31 08:03:46;;;;;;;3.70;1.13;;;21.30;57.20;;;;;;5769019;24;20160;-86
2022/08/31 08:06:20;;;;;;;3.30;1.23;;;21.30;57.00;;;;;;5792250;24;20168;-85
2022/08/31 08:09:04;;;;;;;3.60;1.30;;;21.30;57.00;;;;;;5816947;24;20203;-85
2022/08/31 08:11:36;;;;;;;4.72;1.20;;;21.40;56.90;;;;;;5818116;24;20179;-84
2022/08/31 08:14:16;;;;;;;4.80;1.23;;;21.30;57.00;;;;;;5816648;24;20248;-85
2022/08/31 08:16:52;;;;;;;7.53;1.27;;;21.30;56.90;;;;;;5725636;24;20172;-85
2022/08/31 08:19:27;;;;;;;5.75;1.20;;;21.30;56.90;;;;;;5677592;25;20162;-84
2022/08/31 08:22:08;;;;;;;6.35;1.50;;;21.30;56.90;;;;;;5734074;24;20243;-83
2022/08/31 08:25:07;;;;;;;5.63;1.35;;;21.30;56.90;;;;;;5740419;24;20514;-85
2022/08/31 08:27:36;;;;;;;3.85;1.50;;;21.40;56.50;;;;;;5776176;24;20236;-85
2022/08/31 08:34:12;;;;;;;4.97;1.25;;;21.30;56.70;;;;;;5845536;24;20664;-86
2022/08/31 08:37:20;;;;;;;8.32;1.30;;;21.40;56.20;;;;;;5845135;24;20189;-88
2022/08/31 09:45:02;;;;;;;2.67;1.20;;;21.40;54.80;;;;;;6072864;23;20200;-86
2022/08/31 09:48:22;;;;;;;3.53;1.30;;;21.40;54.70;;;;;;6096747;23;20484;-86
2022/08/31 09:51:15;;;;;;;3.05;1.30;;;21.40;54.80;;;;;;6071420;23;20165;-86
2022/08/31 09:57:05;;;;;;;1.83;0.90;;;21.30;55.00;;;;;;6024840;23;20161;-86
2022/08/31 09:59:52;;;;;;;4.45;1.02;;;21.40;54.50;;;;;;6005579;23;20162;-87
2022/08/31 10:02:38;;;;;;;3.83;1.30;;;21.40;54.90;;;;;;6008723;23;20147;-87
2022/08/31 10:06:00;;;;;;;6.68;1.60;;;21.40;55.10;;;;;;6006560;23;20163;-87
2022/08/31 10:08:56;;;;;;;3.80;1.50;;;21.40;54.70;;;;;;5844731;24;20194;-87
2022/08/31 10:11:28;;;;;;;2.78;1.13;;;21.40;54.40;;;;;;5829325;24;20227;-87
2022/08/31 10:14:09;;;;;;;2.45;1.20;;;21.40;54.50;;;;;;5781957;24;20187;-86
2022/08/31 10:16:51;;;;;;;3.38;1.20;;;21.50;54.40;;;;;;5782789;24;20162;-86
2022/08/31 10:19:29;;;;;;;5.35;1.38;;;21.40;55.20;;;;;;5804536;24;20159;-86
2022/08/31 10:22:02;;;;;;;3.38;1.30;;;21.50;54.80;;;;;;5802558;24;20185;-86
2022/08/31 10:24:38;;;;;;;2.17;1.10;;;21.40;54.80;;;;;;5892656;24;20158;-86
2022/08/31 10:27:37;;;;;;;2.67;1.00;;;21.50;54.50;;;;;;5873189;24;20627;-86
2022/08/31 10:30:16;;;;;;;1.88;1.00;;;21.50;54.50;;;;;;5852288;24;20170;-86
2022/08/31 10:32:52;;;;;;;1.40;0.82;;;21.40;54.60;;;;;;5844109;24;20627;-86
2022/08/31 10:35:22;;;;;;;1.75;1.00;;;21.40;54.70;;;;;;5844356;24;20139;-86
2022/08/31 10:38:16;;;;;;;2.60;1.33;;;21.40;54.60;;;;;;5844474;24;20170;-86
2022/08/31 10:40:55;;;;;;;4.35;1.52;;;21.40;54.70;;;;;;5818304;24;20167;-86
2022/08/31 10:43:30;;;;;;;4.47;1.27;;;21.40;55.40;;;;;;5791752;24;20639;-86
2022/08/31 10:45:56;;;;;;;5.88;2.00;;;21.40;55.80;;;;;;5848515;24;20204;-86
2022/08/31 10:48:24;;;;;;;5.38;1.67;;;21.30;56.50;;;;;;5875999;24;20192;-86
2022/08/31 10:51:18;;;;;;;3.45;1.38;;;21.30;56.40;;;;;;5920882;24;20295;-86
2022/08/31 10:54:01;;;;;;;8.93;1.92;;;21.30;56.20;;;;;;5925184;24;20211;-86
2022/08/31 10:56:57;;;;;;;4.88;1.45;;;21.30;56.20;;;;;;5880845;24;20173;-85
2022/08/31 11:00:01;;;;;;;4.40;1.40;;;21.30;56.60;;;;;;5925501;24;20259;-86
2022/08/31 11:02:44;;;;;;;6.22;1.42;;;21.30;56.40;;;;;;5941708;23;20465;-85
2022/08/31 11:05:21;;;;;;;6.25;1.70;;;21.30;55.90;;;;;;5939600;23;20495;-85
2022/08/31 11:08:13;;;;;;;3.85;1.33;;;21.20;56.20;;;;;;5980979;24;20244;-85
2022/08/31 11:11:05;;;;;;;3.88;1.20;;;21.20;55.90;;;;;;5880833;23;20156;-86
2022/08/31 11:14:04;;;;;;;7.78;1.50;;;21.30;56.00;;;;;;5919575;23;20269;-86
2022/08/31 11:17:00;;;;;;;8.15;1.73;;;21.20;55.70;;;;;;5984786;23;20157;-85
2022/08/31 11:19:51;;;;;;;7.53;1.70;;;21.30;55.80;;;;;;6008160;23;20238;-86
2022/08/31 11:22:36;;;;;;;2.80;1.17;;;21.30;55.70;;;;;;6006139;23;20159;-86
2022/08/31 11:25:46;;;;;;;4.07;1.30;;;21.30;55.30;;;;;;6007573;23;20147;-86
2022/08/31 11:28:17;;;;;;;6.05;1.55;;;21.30;56.20;;;;;;5962232;23;20165;-86
2022/08/31 11:30:45;;;;;;;4.65;1.27;;;21.30;55.10;;;;;;6010620;23;20154;-86
2022/08/31 11:33:18;;;;;;;3.00;1.20;;;21.30;55.70;;;;;;6008423;23;20190;-86
2022/08/31 11:35:59;;;;;;;11.15;1.73;;;21.20;55.60;;;;;;5994266;23;20150;-85
2022/08/31 11:39:04;;;;;;;3.75;1.40;;;21.30;55.50;;;;;;6014187;23;20154;-86
2022/08/31 11:41:57;;;;;;;3.67;1.42;;;21.30;55.70;;;;;;5980172;23;20641;-86
2022/08/31 11:48:30;;;;;;;1.83;1.20;;;21.30;54.90;;;;;;6097088;23;20472;-86
2022/08/31 12:01:48;;;;;;;1.85;1.20;;;21.30;55.20;;;;;;6108341;23;20235;-85
2022/08/31 12:04:56;;;;;;;4.43;1.00;;;21.30;54.80;;;;;;6074251;23;20303;-85
2022/08/31 12:07:41;;;;;;;3.08;1.52;;;21.20;55.00;;;;;;6062175;23;20483;-84
2022/08/31 12:10:34;;;;;;;2.83;1.20;;;21.30;54.80;;;;;;6052143;23;20160;-85
2022/08/31 12:13:25;;;;;;;5.32;1.20;;;21.30;54.10;;;;;;6001245;23;20195;-86
2022/08/31 12:16:23;;;;;;;1.88;1.15;;;21.30;54.30;;;;;;6043298;23;20157;-86
2022/08/31 12:25:10;;;;;;;3.67;1.60;;;21.30;54.10;;;;;;6067556;23;20455;-84
2022/08/31 12:28:01;;;;;;;3.00;1.02;;;21.30;54.70;;;;;;6067374;23;20157;-87
2022/08/31 12:30:29;;;;;;;1.38;1.10;;;21.30;54.60;;;;;;6067187;23;20232;-85
2022/08/31 12:33:07;;;;;;;3.78;1.10;;;21.30;55.00;;;;;;5990923;23;20229;-87
2022/08/31 12:36:33;;;;;;;1.98;1.20;;;21.30;55.20;;;;;;6038554;23;20154;-87
2022/08/31 12:38:45;;;;;;;;;;;;;;;;;;;;;
2022/08/31 12:41:26;;;;;;;1.55;1.05;;;21.30;56.00;;;;;;6010759;23;20300;-86
2022/08/31 12:43:53;;;;;;;3.38;1.20;;;21.30;56.40;;;;;;6052166;23;20212;-87
2022/08/31 12:46:37;;;;;;;4.95;1.42;;;21.30;56.60;;;;;;6043078;23;20201;-89
2022/08/31 12:49:29;;;;;;;3.53;1.38;;;21.30;57.00;;;;;;6043241;23;20142;-88
2022/08/31 12:52:24;;;;;;;2.65;1.02;;;21.30;57.20;;;;;;6046441;23;20153;-88
2022/08/31 12:55:22;;;;;;;2.03;1.20;;;21.20;57.10;;;;;;6045189;23;20201;-88
2022/08/31 12:58:07;;;;;;;1.30;0.98;;;21.30;57.20;;;;;;6012814;23;20176;-88
2022/08/31 13:00:48;;;;;;;4.15;1.50;;;21.30;57.30;;;;;;6021772;23;20189;-89
2022/08/31 13:03:21;;;;;;;1.85;1.20;;;21.30;57.60;;;;;;6051236;23;20604;-88
2022/08/31 13:06:01;;;;;;;1.50;1.40;;;21.30;57.70;;;;;;6048520;23;20164;-88
2022/08/31 13:08:45;;;;;;;2.03;1.33;;;21.30;57.60;;;;;;6042654;23;20376;-87
2022/08/31 13:11:39;;;;;;;4.70;1.60;;;21.30;58.00;;;;;;6000006;23;20164;-89
2022/08/31 13:14:25;;;;;;;2.65;1.40;;;21.30;58.50;;;;;;6043558;23;20644;-89
2022/08/31 13:16:54;;;;;;;1.55;1.30;;;21.30;58.00;;;;;;6020602;23;20537;-87
2022/08/31 13:19:36;;;;;;;3.70;1.30;;;21.30;58.50;;;;;;5997113;23;20145;-86
2022/08/31 13:22:05;;;;;;;2.35;1.40;;;21.30;58.30;;;;;;6024457;23;20197;-88
2022/08/31 13:24:51;;;;;;;5.65;1.80;;;21.30;59.00;;;;;;5997890;23;20189;-87
2022/08/31 13:27:21;;;;;;;3.95;1.60;;;21.30;59.70;;;;;;6022622;23;20157;-87
2022/08/31 13:30:00;;;;;;;4.47;1.58;;;21.30;59.10;;;;;;6024796;23;20576;-88
2022/08/31 13:32:59;;;;;;;;;;;;;;;;;;;;;
2022/08/31 13:35:27;;;;;;;4.88;1.40;;;21.30;59.10;;;;;;6022182;23;20241;-88
2022/08/31 13:38:03;;;;;;;4.40;1.45;;;21.30;59.00;;;;;;5996888;23;20248;-88
2022/08/31 13:40:33;;;;;;;3.13;1.42;;;21.30;59.90;;;;;;6071137;23;20152;-88
2022/08/31 13:43:01;;;;;;;3.90;1.50;;;21.30;59.10;;;;;;6074474;23;20153;-88
2022/08/31 13:45:35;;;;;;;4.28;1.80;;;21.20;59.50;;;;;;6048575;23;20197;-88
2022/08/31 13:48:08;;;;;;;1.67;1.35;;;21.30;59.40;;;;;;6049550;23;20648;-89
2022/08/31 13:51:21;;;;;;;1.40;1.20;;;21.30;59.30;;;;;;6018357;23;20164;-89
2022/08/31 13:54:23;;;;;;;;;;;;;;;;;;;;;
2022/08/31 13:56:58;;;;;;;2.33;0.98;;;21.30;59.40;;;;;;5974916;23;20238;-88
2022/08/31 13:59:29;;;;;;;2.20;1.25;;;21.30;59.50;;;;;;6012638;23;20176;-88
2022/08/31 15:04:47;;;;;;;1.92;0.90;;;21.30;57.60;;;;;;6099196;23;20228;-88
2022/08/31 15:07:13;;;;;;;0.70;0.70;;;21.30;57.30;;;;;;6073324;23;20153;-87
2022/08/31 15:09:41;;;;;;;2.05;0.90;;;21.30;57.20;;;;;;6073242;23;20160;-87
2022/08/31 15:12:08;;;;;;;1.85;1.25;;;21.30;56.80;;;;;;6049002;23;20136;-88
2022/08/31 15:14:36;;;;;;;1.40;0.90;;;21.30;56.70;;;;;;6073159;23;20167;-87
2022/08/31 15:17:10;;;;;;;1.17;0.90;;;21.40;56.20;;;;;;6073762;23;20151;-88
2022/08/31 15:19:38;;;;;;;1.40;0.70;;;21.40;55.90;;;;;;6050318;23;20141;-88
2022/08/31 15:22:08;;;;;;;1.10;1.00;;;21.40;55.90;;;;;;6049658;23;20232;-87
2022/08/31 15:24:37;;;;;;;0.98;0.88;;;21.40;56.30;;;;;;6050888;23;20196;-87
2022/08/31 15:27:10;;;;;;;2.78;0.90;;;21.40;56.40;;;;;;6048719;23;20489;-87
2022/08/31 15:29:36;;;;;;;1.95;0.90;;;21.30;56.40;;;;;;6052875;23;20156;-87
2022/08/31 15:32:02;;;;;;;0.90;0.80;;;21.30;56.30;;;;;;6048975;23;20493;-87
2022/08/31 15:34:36;;;;;;;1.42;0.90;;;21.30;56.40;;;;;;6073547;23;20236;-87
2022/08/31 15:37:06;;;;;;;2.50;1.00;;;21.30;56.10;;;;;;6073713;23;20159;-87
2022/08/31 15:39:59;;;;;;;1.13;0.82;;;21.30;55.80;;;;;;6050986;23;20156;-86
2022/08/31 15:42:30;;;;;;;1.75;0.90;;;21.30;56.40;;;;;;6072812;23;20160;-85
2022/08/31 15:45:18;;;;;;;;;;;;;;;;;;;;;
2022/08/31 15:51:41;;;;;;;2.90;0.70;;;21.30;55.70;;;;;;6055396;23;20153;-87
2022/08/31 15:54:22;;;;;;;1.17;1.00;;;21.40;55.70;;;;;;6037507;23;20173;-87
2022/08/31 15:57:14;;;;;;;1.55;0.90;;;21.40;55.40;;;;;;6013581;23;20142;-87
2022/08/31 16:00:31;;;;;;;1.83;0.95;;;21.40;55.90;;;;;;6014621;23;20161;-89
2022/08/31 16:03:20;;;;;;;0.85;0.75;;;21.40;56.10;;;;;;5964086;23;20206;-87
2022/08/31 16:06:04;;;;;;;2.38;0.77;;;21.40;55.60;;;;;;5988200;23;20162;-88
2022/08/31 16:09:03;;;;;;;2.53;0.88;;;21.50;55.90;;;;;;5958109;24;20168;-90
2022/08/31 16:12:14;;;;;;;2.25;0.88;;;21.50;55.60;;;;;;5920084;24;20183;-88
2022/08/31 16:15:27;;;;;;;4.80;0.90;;;21.50;55.10;;;;;;5928281;24;20167;-88
2022/08/31 17:03:07;;;;;;;28.13;3.38;;;21.60;55.30;;;;;;6101798;23;20156;-87
2022/08/31 17:05:32;;;;;;;39.88;3.67;;;21.60;56.10;;;;;;6097929;23;20205;-86
2022/08/31 17:07:58;;;;;;;43.78;3.75;;;21.50;56.60;;;;;;6097659;23;20145;-86
2022/08/31 17:10:26;;;;;;;48.47;4.00;;;21.50;56.50;;;;;;6050313;23;20232;-86
2022/08/31 17:12:54;;;;;;;56.22;4.28;;;21.50;56.50;;;;;;6073590;23;20334;-86
2022/08/31 17:15:22;;;;;;;56.67;4.40;;;21.50;56.40;;;;;;6097219;23;20156;-87
2022/08/31 17:17:53;;;;;;;44.55;3.95;;;21.50;56.30;;;;;;6049821;23;20212;-87